Time;durP1;ratioP1;P1;durP2;ratioP2;P2;SDS_P1;SDS_P2;PMS_P1;PMS_P2;Temp;Humidity;BMP_temperature;BMP_pressure;BME280_temperature;BME280_humidity;BME280_pressure;Samples;Min_cycle;Max_cycle;Signal;HPM_P1;HPM_P2
2022/11/21 00:01:54;;;;;;;2.33;0.52;;;14.30;78.50;;;;;;4163911;28;20063;-59
2022/11/21 00:04:38;;;;;;;0.65;0.65;;;14.30;78.50;;;;;;4190813;28;20063;-58
2022/11/21 00:07:19;;;;;;;1.00;0.52;;;14.20;78.40;;;;;;4188145;28;20141;-59
2022/11/21 00:10:00;;;;;;;;;;;14.30;78.60;;;;;;4177001;28;20051;-59
2022/11/21 00:12:41;;;;;;;0.00;0.00;;;14.20;78.40;;;;;;4197855;28;19932;-59
2022/11/21 00:15:25;;;;;;;0.03;0.03;;;14.30;79.40;;;;;;4181918;28;20059;-59
2022/11/21 00:18:10;;;;;;;0.00;0.00;;;14.20;78.70;;;;;;4199387;28;20093;-57
2022/11/21 00:20:51;;;;;;;0.00;0.00;;;14.20;78.80;;;;;;4167654;28;20060;-59
2022/11/21 00:23:32;;;;;;;0.77;0.77;;;14.20;79.70;;;;;;4151933;28;20063;-59
2022/11/21 00:26:14;;;;;;;;;;;14.20;78.90;;;;;;4152549;28;20051;-59
2022/11/21 00:28:57;;;;;;;0.40;0.40;;;14.10;78.80;;;;;;4199017;28;20401;-58
2022/11/21 00:31:40;;;;;;;0.00;0.00;;;14.10;78.90;;;;;;4191992;28;20103;-58
2022/11/21 00:34:21;;;;;;;1.45;1.35;;;14.10;79.00;;;;;;4193583;28;20140;-59
2022/11/21 00:37:03;;;;;;;0.10;0.10;;;14.10;79.10;;;;;;4188378;28;20097;-59
2022/11/21 00:39:49;;;;;;;0.13;0.13;;;14.10;79.20;;;;;;4192090;28;20051;-59
2022/11/21 00:42:30;;;;;;;0.00;0.00;;;14.10;79.30;;;;;;4191292;28;20513;-60
2022/11/21 00:45:12;;;;;;;0.20;0.20;;;14.10;79.30;;;;;;4182962;28;20051;-59
2022/11/21 00:47:56;;;;;;;1.30;1.20;;;14.10;79.30;;;;;;4202309;28;20534;-59
2022/11/21 00:50:37;;;;;;;0.08;0.08;;;14.00;79.30;;;;;;4158303;28;20057;-59
2022/11/21 00:53:19;;;;;;;0.00;0.00;;;14.00;79.30;;;;;;4157645;28;20060;-59
2022/11/21 00:55:59;;;;;;;0.00;0.00;;;14.00;79.30;;;;;;4157411;28;20045;-60
2022/11/21 00:58:40;;;;;;;4.38;1.75;;;14.00;79.30;;;;;;4158001;28;20559;-59
2022/11/21 01:01:21;;;;;;;0.00;0.00;;;14.10;79.70;;;;;;4158988;28;20040;-59
2022/11/21 01:04:05;;;;;;;0.10;0.10;;;14.20;79.30;;;;;;4173185;28;20044;-59
2022/11/21 01:06:45;;;;;;;0.00;0.00;;;14.30;78.60;;;;;;4158118;28;20123;-59
2022/11/21 01:09:27;;;;;;;0.03;0.03;;;14.40;78.00;;;;;;4158789;28;20056;-59
2022/11/21 01:12:08;;;;;;;1.10;1.05;;;14.50;77.70;;;;;;4158686;28;20056;-59
2022/11/21 01:14:49;;;;;;;0.35;0.35;;;14.60;77.10;;;;;;4176302;28;20052;-59
2022/11/21 01:17:32;;;;;;;0.00;0.00;;;14.60;76.80;;;;;;4208502;28;20493;-59
2022/11/21 01:20:16;;;;;;;0.00;0.00;;;14.70;76.60;;;;;;4175005;28;20048;-59
2022/11/21 01:22:56;;;;;;;0.20;0.20;;;14.70;76.50;;;;;;4188708;28;20175;-59
2022/11/21 01:25:37;;;;;;;0.15;0.15;;;14.70;76.30;;;;;;4175475;28;20118;-60
2022/11/21 01:28:18;;;;;;;1.38;1.38;;;14.70;76.30;;;;;;4175214;28;20064;-58
2022/11/21 01:31:04;;;;;;;0.00;0.00;;;14.70;76.30;;;;;;4175370;28;20047;-58
2022/11/21 01:33:46;;;;;;;0.00;0.00;;;14.80;76.00;;;;;;4185486;28;20050;-59
2022/11/21 01:36:29;;;;;;;;;;;14.80;75.60;;;;;;4175784;28;20055;-59
2022/11/21 01:39:11;;;;;;;0.00;0.00;;;14.90;75.30;;;;;;4175015;28;19931;-60
2022/11/21 01:41:52;;;;;;;0.10;0.10;;;14.90;75.10;;;;;;4185608;28;20175;-59
2022/11/21 01:44:48;;;;;;;0.00;0.00;;;14.90;75.00;;;;;;4198137;28;20066;-58
2022/11/21 01:47:29;;;;;;;0.40;0.40;;;14.90;74.90;;;;;;4208364;28;20098;-58
2022/11/21 01:50:09;;;;;;;0.77;0.77;;;14.90;74.90;;;;;;4207368;28;20098;-58
2022/11/21 01:52:54;;;;;;;0.00;0.00;;;15.00;74.90;;;;;;4189785;28;20286;-59
2022/11/21 01:55:36;;;;;;;0.15;0.15;;;15.00;74.60;;;;;;4174826;28;20196;-58
2022/11/21 01:58:17;;;;;;;0.00;0.00;;;15.00;74.30;;;;;;4175101;28;20102;-59
2022/11/21 02:00:59;;;;;;;0.03;0.03;;;15.10;74.10;;;;;;4175276;28;20119;-57
2022/11/21 02:03:42;;;;;;;0.00;0.00;;;15.10;73.90;;;;;;4188383;28;20611;-59
2022/11/21 02:06:24;;;;;;;0.10;0.10;;;15.10;73.80;;;;;;4206798;28;20532;-59
2022/11/21 02:09:07;;;;;;;0.00;0.00;;;15.10;73.80;;;;;;4188568;28;20055;-59
2022/11/21 02:11:52;;;;;;;0.38;0.38;;;15.00;73.90;;;;;;4191149;28;20050;-59
2022/11/21 02:14:35;;;;;;;0.22;0.22;;;15.00;73.70;;;;;;4191596;28;20624;-59
2022/11/21 02:17:18;;;;;;;0.00;0.00;;;15.00;74.50;;;;;;4191826;28;20055;-59
2022/11/21 02:20:01;;;;;;;0.00;0.00;;;15.00;73.70;;;;;;4194611;28;20047;-59
2022/11/21 02:22:52;;;;;;;0.00;0.00;;;15.00;73.60;;;;;;4194397;28;20056;-58
2022/11/21 02:25:36;;;;;;;0.75;0.75;;;15.00;73.50;;;;;;4211277;28;20055;-59
2022/11/21 02:28:22;;;;;;;0.00;0.00;;;15.00;73.40;;;;;;4211236;28;20181;-59
2022/11/21 02:31:03;;;;;;;0.70;0.70;;;15.00;73.40;;;;;;4210129;28;20055;-58
2022/11/21 02:33:43;;;;;;;0.22;0.22;;;15.10;73.10;;;;;;4194288;28;20490;-59
2022/11/21 02:36:35;;;;;;;0.80;0.75;;;15.20;72.70;;;;;;4194285;28;20133;-58
2022/11/21 02:39:19;;;;;;;;;;;15.20;72.20;;;;;;4194185;28;20064;-59
2022/11/21 02:42:07;;;;;;;0.08;0.08;;;15.30;71.90;;;;;;4202449;28;19931;-59
2022/11/21 02:44:55;;;;;;;0.32;0.32;;;15.40;71.70;;;;;;4210796;28;20047;-59
2022/11/21 02:47:38;;;;;;;0.00;0.00;;;15.40;71.30;;;;;;4211020;28;20059;-59
2022/11/21 02:50:23;;;;;;;0.10;0.10;;;15.40;71.20;;;;;;4210591;28;20054;-58
2022/11/21 02:53:06;;;;;;;1.20;1.17;;;15.40;71.10;;;;;;4194352;28;20097;-59
2022/11/21 02:55:46;;;;;;;1.55;1.45;;;15.40;71.20;;;;;;4193795;28;20059;-59
2022/11/21 02:58:29;;;;;;;0.25;0.15;;;15.40;71.40;;;;;;4193963;28;20047;-60
2022/11/21 03:01:09;;;;;;;1.05;1.05;;;15.40;71.30;;;;;;4185001;28;20054;-62
2022/11/21 03:03:50;;;;;;;2.15;2.08;;;15.50;70.90;;;;;;4210900;28;20182;-60
2022/11/21 03:06:31;;;;;;;0.75;0.75;;;15.50;70.60;;;;;;4210869;28;20388;-60
2022/11/21 03:09:12;;;;;;;0.75;0.75;;;15.50;70.40;;;;;;4209483;28;20051;-59
2022/11/21 03:11:53;;;;;;;0.30;0.30;;;15.50;70.40;;;;;;4193186;28;20070;-59
2022/11/21 03:14:36;;;;;;;0.73;0.70;;;15.50;70.40;;;;;;4193814;28;20126;-60
2022/11/21 03:17:17;;;;;;;0.47;0.47;;;15.50;70.60;;;;;;4193806;28;20451;-60
2022/11/21 03:19:58;;;;;;;0.05;0.05;;;15.50;70.70;;;;;;4198996;28;20047;-62
2022/11/21 03:22:38;;;;;;;0.08;0.08;;;15.50;70.60;;;;;;4196411;28;20089;-59
2022/11/21 03:25:19;;;;;;;0.00;0.00;;;15.50;70.50;;;;;;4193622;28;20093;-60
2022/11/21 03:28:00;;;;;;;0.08;0.08;;;15.50;70.30;;;;;;4193010;28;20407;-60
2022/11/21 03:30:43;;;;;;;0.00;0.00;;;15.60;70.00;;;;;;4193146;28;20059;-60
2022/11/21 03:33:23;;;;;;;0.55;0.55;;;15.60;69.80;;;;;;4193024;28;20047;-59
2022/11/21 03:36:05;;;;;;;1.08;0.98;;;15.60;69.80;;;;;;4176493;28;20094;-59
2022/11/21 03:38:46;;;;;;;0.00;0.00;;;15.60;69.80;;;;;;4190385;28;20047;-60
2022/11/21 03:41:29;;;;;;;0.00;0.00;;;15.60;69.80;;;;;;4193092;28;20057;-59
2022/11/21 03:44:12;;;;;;;0.90;0.90;;;15.60;69.70;;;;;;4191974;28;20051;-59
2022/11/21 03:46:55;;;;;;;0.00;0.00;;;15.60;69.60;;;;;;4192153;28;20053;-60
2022/11/21 03:49:36;;;;;;;0.20;0.20;;;15.70;69.60;;;;;;4176611;28;20055;-60
2022/11/21 03:52:17;;;;;;;0.10;0.10;;;15.70;69.50;;;;;;4186089;28;20621;-60
2022/11/21 03:54:58;;;;;;;0.40;0.40;;;15.70;69.40;;;;;;4192804;28;20047;-60
2022/11/21 03:57:39;;;;;;;0.68;0.68;;;15.70;69.50;;;;;;4181168;28;20059;-60
2022/11/21 04:00:20;;;;;;;;;;;15.70;69.70;;;;;;4180762;28;20047;-60
2022/11/21 04:03:03;;;;;;;1.45;0.80;;;15.60;69.70;;;;;;4193041;28;19947;-59
2022/11/21 04:05:44;;;;;;;0.00;0.00;;;15.70;70.50;;;;;;4197607;28;20046;-60
2022/11/21 04:08:27;;;;;;;0.10;0.10;;;15.70;69.30;;;;;;4209685;28;20066;-60
2022/11/21 04:11:08;;;;;;;0.00;0.00;;;15.70;69.00;;;;;;4209745;28;20103;-60
2022/11/21 04:13:49;;;;;;;0.00;0.00;;;15.80;69.90;;;;;;4208886;28;20120;-61
2022/11/21 04:16:30;;;;;;;0.03;0.03;;;15.80;68.70;;;;;;4197969;28;20059;-60
2022/11/21 04:19:12;;;;;;;0.25;0.25;;;15.90;68.30;;;;;;4192806;28;20052;-60
2022/11/21 04:21:53;;;;;;;0.03;0.03;;;16.00;68.20;;;;;;4192814;28;20178;-60
2022/11/21 04:24:34;;;;;;;0.30;0.30;;;16.00;68.00;;;;;;4192361;28;20060;-60
2022/11/21 04:27:15;;;;;;;0.95;0.95;;;16.10;67.70;;;;;;4176151;28;20064;-60
2022/11/21 04:29:56;;;;;;;0.30;0.30;;;16.10;67.60;;;;;;4186439;28;20404;-60
2022/11/21 04:32:36;;;;;;;0.00;0.00;;;16.10;67.50;;;;;;4181866;28;20407;-60
2022/11/21 04:35:19;;;;;;;2.42;1.17;;;16.10;67.40;;;;;;4194273;28;20121;-60
2022/11/21 04:38:00;;;;;;;0.00;0.00;;;16.10;67.20;;;;;;4209096;28;20047;-60
2022/11/21 04:40:42;;;;;;;1.65;0.88;;;16.10;67.30;;;;;;4209172;28;20051;-60
2022/11/21 04:43:23;;;;;;;1.23;1.13;;;16.10;67.30;;;;;;4209000;28;20051;-60
2022/11/21 04:46:04;;;;;;;0.75;0.75;;;16.10;67.20;;;;;;4196563;28;20089;-60
2022/11/21 04:48:45;;;;;;;4.90;1.75;;;16.10;67.10;;;;;;4192209;28;20052;-60
2022/11/21 04:51:27;;;;;;;0.00;0.00;;;16.10;67.00;;;;;;4192358;28;20063;-60
2022/11/21 04:54:08;;;;;;;0.00;0.00;;;16.10;67.10;;;;;;4192346;28;20294;-60
2022/11/21 04:56:49;;;;;;;0.00;0.00;;;16.10;67.00;;;;;;4175707;28;20060;-60
2022/11/21 04:59:30;;;;;;;0.57;0.57;;;16.10;66.70;;;;;;4175833;28;20052;-60
2022/11/21 05:02:11;;;;;;;0.15;0.15;;;16.20;66.40;;;;;;4182193;28;20064;-60
2022/11/21 05:04:52;;;;;;;0.95;0.95;;;16.20;67.20;;;;;;4192704;28;20587;-60
2022/11/21 05:07:34;;;;;;;0.00;0.00;;;16.10;66.40;;;;;;4192437;28;20141;-60
2022/11/21 05:10:14;;;;;;;0.80;0.65;;;16.10;66.70;;;;;;4175652;28;20295;-60
2022/11/21 05:15:57;;;;;;;0.85;0.85;;;16.10;67.80;;;;;;4201155;28;20518;-60
2022/11/21 05:18:38;;;;;;;0.47;0.47;;;16.00;66.80;;;;;;4192038;28;20074;-60
2022/11/21 05:21:19;;;;;;;0.00;0.00;;;16.00;66.60;;;;;;4192145;28;20076;-60
2022/11/21 05:24:01;;;;;;;0.20;0.20;;;15.90;66.70;;;;;;4204426;28;20060;-60
2022/11/21 05:26:42;;;;;;;0.85;0.85;;;16.00;66.80;;;;;;4208792;28;20047;-59
2022/11/21 05:29:23;;;;;;;0.05;0.05;;;16.00;66.60;;;;;;4192067;28;20056;-60
2022/11/21 05:32:08;;;;;;;0.10;0.10;;;16.00;66.50;;;;;;4191916;28;20043;-60
2022/11/21 05:34:49;;;;;;;0.30;0.30;;;16.10;66.50;;;;;;4175769;28;20064;-60
2022/11/21 05:37:29;;;;;;;0.00;0.00;;;16.10;66.20;;;;;;4175285;28;20056;-59
2022/11/21 05:40:13;;;;;;;0.57;0.57;;;16.20;66.10;;;;;;4175193;28;20499;-60
2022/11/21 05:45:52;;;;;;;1.55;0.88;;;16.10;66.10;;;;;;4191258;28;20527;-60
2022/11/21 05:48:35;;;;;;;0.00;0.00;;;16.20;66.20;;;;;;4184766;28;20109;-60
2022/11/21 05:51:17;;;;;;;0.00;0.00;;;16.20;66.10;;;;;;4202908;28;20059;-60
2022/11/21 05:53:59;;;;;;;0.03;0.03;;;16.30;66.00;;;;;;4194878;28;20093;-60
2022/11/21 05:56:42;;;;;;;0.00;0.00;;;16.30;65.90;;;;;;4194899;28;20498;-60
2022/11/21 05:59:23;;;;;;;0.47;0.47;;;16.30;66.00;;;;;;4178188;28;20056;-60
2022/11/21 06:05:02;;;;;;;0.00;0.00;;;16.20;65.90;;;;;;4210889;28;20692;-60
2022/11/21 06:07:43;;;;;;;0.88;0.88;;;16.20;65.70;;;;;;4211518;28;20055;-60
2022/11/21 06:10:23;;;;;;;0.20;0.20;;;16.20;65.50;;;;;;4205724;28;20056;-60
2022/11/21 06:13:20;;;;;;;0.03;0.03;;;16.20;65.70;;;;;;4194293;28;20118;-60
2022/11/21 06:16:03;;;;;;;0.52;0.52;;;16.20;65.80;;;;;;4193530;28;20052;-59
2022/11/21 06:18:46;;;;;;;0.00;0.00;;;16.20;65.80;;;;;;4194698;28;20078;-60
2022/11/21 06:21:28;;;;;;;0.00;0.00;;;16.30;65.60;;;;;;4206353;28;20193;-60
2022/11/21 06:24:11;;;;;;;0.93;0.70;;;16.30;65.60;;;;;;4194414;28;20043;-57
2022/11/21 06:26:51;;;;;;;0.10;0.10;;;16.30;66.80;;;;;;4194572;28;20047;-58
2022/11/21 06:29:35;;;;;;;0.00;0.00;;;16.20;65.80;;;;;;4188265;28;20089;-57
2022/11/21 06:32:15;;;;;;;0.10;0.10;;;16.30;65.70;;;;;;4176848;28;20400;-57
2022/11/21 06:35:02;;;;;;;0.03;0.03;;;16.30;65.50;;;;;;4147050;28;20043;-57
2022/11/21 06:37:55;;;;;;;0.38;0.38;;;16.30;65.50;;;;;;4158438;28;20067;-56
2022/11/21 06:40:48;;;;;;;0.00;0.00;;;16.30;65.70;;;;;;4186311;28;20054;-57
2022/11/21 06:43:29;;;;;;;0.03;0.03;;;16.30;65.40;;;;;;4210698;28;20055;-50
2022/11/21 06:46:24;;;;;;;0.03;0.03;;;16.30;66.30;;;;;;4203272;27;20354;-56
2022/11/21 06:49:07;;;;;;;0.52;0.52;;;16.30;66.40;;;;;;4192246;28;20082;-54
2022/11/21 06:51:49;;;;;;;0.00;0.00;;;16.40;66.20;;;;;;4171502;28;20503;-57
2022/11/21 06:54:31;;;;;;;0.00;0.00;;;16.30;66.10;;;;;;4190743;28;20141;-60
2022/11/21 06:57:12;;;;;;;0.05;0.05;;;16.30;66.20;;;;;;4194817;28;20051;-56
2022/11/21 06:59:55;;;;;;;0.45;0.45;;;16.30;66.20;;;;;;4175219;28;20071;-55
2022/11/21 07:02:41;;;;;;;1.63;1.63;;;16.30;66.00;;;;;;4169732;28;20083;-54
2022/11/21 07:05:22;;;;;;;0.00;0.00;;;16.30;65.90;;;;;;4183548;28;20803;-55
2022/11/21 07:08:05;;;;;;;0.03;0.03;;;16.30;65.90;;;;;;4179019;28;20824;-57
2022/11/21 07:10:53;;;;;;;1.38;0.98;;;16.30;66.00;;;;;;4176698;28;20095;-58
2022/11/21 07:13:55;;;;;;;0.70;0.70;;;16.30;66.10;;;;;;4161303;28;20093;-60
2022/11/21 07:16:36;;;;;;;0.20;0.20;;;16.40;66.00;;;;;;4179409;27;20402;-58
2022/11/21 07:19:19;;;;;;;;;;;16.40;65.80;;;;;;4207314;28;20398;-58
2022/11/21 07:22:03;;;;;;;0.20;0.20;;;16.40;65.70;;;;;;4192230;28;19926;-57
2022/11/21 07:24:46;;;;;;;1.10;1.10;;;16.50;65.50;;;;;;4182621;27;20573;-58
2022/11/21 07:27:33;;;;;;;1.95;1.85;;;16.50;65.20;;;;;;4207627;28;20529;-58
2022/11/21 07:30:15;;;;;;;0.52;0.52;;;16.40;65.30;;;;;;4190873;28;20055;-58
2022/11/21 07:32:56;;;;;;;;;;;16.40;65.50;;;;;;4192439;28;20055;-61
2022/11/21 07:35:39;;;;;;;0.55;0.55;;;16.40;65.40;;;;;;4192060;27;19927;-58
2022/11/21 07:38:20;;;;;;;0.22;0.22;;;16.50;65.40;;;;;;4190045;28;20063;-59
2022/11/21 07:41:01;;;;;;;1.88;1.75;;;16.50;65.20;;;;;;4174209;28;20052;-58
2022/11/21 07:43:45;;;;;;;;;;;16.50;65.10;;;;;;4184460;28;21575;-59
2022/11/21 07:46:26;;;;;;;2.72;1.13;;;16.60;66.00;;;;;;4189088;28;19955;-58
2022/11/21 07:49:07;;;;;;;0.73;0.73;;;16.60;65.00;;;;;;4207796;28;20069;-58
2022/11/21 07:51:50;;;;;;;53.58;2.45;;;16.60;65.00;;;;;;4173222;28;20396;-58
2022/11/21 07:54:31;;;;;;;2.80;0.80;;;16.50;64.90;;;;;;4199683;28;20052;-58
2022/11/21 07:57:13;;;;;;;0.22;0.22;;;16.60;64.90;;;;;;4184164;28;20219;-58
2022/11/21 07:59:54;;;;;;;;;;;16.50;64.90;;;;;;4174604;28;20126;-58
2022/11/21 08:02:35;;;;;;;0.43;0.43;;;16.50;65.20;;;;;;4182615;27;19931;-58
2022/11/21 08:05:17;;;;;;;0.10;0.10;;;16.40;65.40;;;;;;4196332;28;20101;-58
2022/11/21 08:08:00;;;;;;;1.65;1.55;;;16.40;65.60;;;;;;4184270;28;20129;-58
2022/11/21 08:10:43;;;;;;;0.55;0.55;;;16.30;65.90;;;;;;4191882;28;20059;-58
2022/11/21 08:13:29;;;;;;;0.00;0.00;;;16.20;66.20;;;;;;4175401;28;20055;-59
2022/11/21 08:16:10;;;;;;;0.03;0.03;;;16.20;66.20;;;;;;4172977;28;20059;-59
2022/11/21 08:18:51;;;;;;;5.43;0.95;;;16.30;66.10;;;;;;4180654;28;20052;-58
2022/11/21 08:21:32;;;;;;;0.08;0.08;;;16.40;65.90;;;;;;4192281;28;20059;-58
2022/11/21 08:24:16;;;;;;;0.15;0.15;;;16.40;65.60;;;;;;4192008;28;20052;-58
2022/11/21 08:27:00;;;;;;;1.73;1.08;;;16.40;65.70;;;;;;4203519;28;20055;-58
2022/11/21 08:29:41;;;;;;;0.95;0.40;;;16.40;65.50;;;;;;4202262;28;20173;-59
2022/11/21 08:32:22;;;;;;;0.10;0.10;;;16.40;65.20;;;;;;4181239;28;20055;-58
2022/11/21 08:35:04;;;;;;;0.00;0.00;;;16.40;65.10;;;;;;4195627;28;20121;-58
2022/11/21 08:37:45;;;;;;;0.20;0.20;;;16.30;65.30;;;;;;4187796;28;20491;-59
2022/11/21 08:40:30;;;;;;;1.38;1.38;;;16.20;65.60;;;;;;4207163;28;20046;-59
2022/11/21 08:43:11;;;;;;;0.15;0.15;;;16.10;66.00;;;;;;4190405;28;20055;-58
2022/11/21 08:45:52;;;;;;;;;;;16.00;66.40;;;;;;4188898;28;20044;-57
2022/11/21 08:48:33;;;;;;;0.98;0.90;;;16.00;66.60;;;;;;4189354;28;19966;-58
2022/11/21 08:51:14;;;;;;;0.00;0.00;;;16.00;66.70;;;;;;4190549;28;20051;-58
2022/11/21 08:53:55;;;;;;;0.73;0.73;;;16.00;66.90;;;;;;4190968;28;20054;-58
2022/11/21 08:56:38;;;;;;;0.00;0.00;;;16.00;67.10;;;;;;4189369;28;20110;-58
2022/11/21 08:59:20;;;;;;;0.70;0.70;;;16.00;67.00;;;;;;4191405;28;20055;-59
2022/11/21 09:02:01;;;;;;;12.07;3.60;;;16.00;66.90;;;;;;4189433;28;20079;-59
2022/11/21 09:04:42;;;;;;;;;;;16.00;67.00;;;;;;4190545;28;20052;-59
2022/11/21 09:07:23;;;;;;;0.30;0.30;;;16.00;67.00;;;;;;4179082;28;19932;-59
2022/11/21 09:10:06;;;;;;;0.35;0.35;;;15.90;67.20;;;;;;4178772;28;20063;-59
2022/11/21 09:12:49;;;;;;;0.00;0.00;;;15.90;67.50;;;;;;4175233;28;20080;-59
2022/11/21 09:18:28;;;;;;;1.20;1.20;;;15.80;68.80;;;;;;4174711;28;20407;-58
2022/11/21 09:21:09;;;;;;;0.43;0.43;;;15.70;68.00;;;;;;4174869;28;20495;-60
2022/11/21 09:23:51;;;;;;;0.00;0.00;;;15.70;68.20;;;;;;4175370;28;20506;-59
2022/11/21 09:26:32;;;;;;;1.38;1.30;;;15.60;68.40;;;;;;4176132;28;20055;-58
2022/11/21 09:29:15;;;;;;;0.60;0.60;;;15.70;68.40;;;;;;4169989;28;20486;-59
2022/11/21 09:31:56;;;;;;;0.80;0.80;;;15.80;68.10;;;;;;4162410;28;20186;-59
2022/11/21 09:34:36;;;;;;;0.40;0.40;;;15.90;67.70;;;;;;4159403;28;20749;-59
2022/11/21 09:37:18;;;;;;;0.20;0.20;;;16.00;67.50;;;;;;4175153;28;20052;-59
2022/11/21 09:39:58;;;;;;;0.65;0.65;;;16.10;67.10;;;;;;4178829;28;20064;-59
2022/11/21 09:43:13;;;;;;;1.02;1.00;;;16.10;66.70;;;;;;4178505;28;20086;-59
2022/11/21 09:46:02;;;;;;;0.00;0.00;;;16.10;66.60;;;;;;4178605;28;20052;-59
2022/11/21 09:48:53;;;;;;;0.22;0.22;;;16.10;66.50;;;;;;4179299;28;20492;-56
2022/11/21 09:51:37;;;;;;;0.30;0.30;;;16.20;66.20;;;;;;4175589;28;20060;-58
2022/11/21 09:54:22;;;;;;;0.25;0.25;;;16.30;66.10;;;;;;4178384;28;20179;-57
2022/11/21 09:57:04;;;;;;;1.38;1.27;;;16.30;66.10;;;;;;4160845;28;20478;-57
2022/11/21 09:59:47;;;;;;;1.95;0.80;;;16.20;66.20;;;;;;4177655;28;20491;-55
2022/11/21 10:02:29;;;;;;;0.00;0.00;;;16.10;66.40;;;;;;4185825;28;20121;-58
2022/11/21 10:05:30;;;;;;;0.57;0.57;;;16.10;66.80;;;;;;4180074;28;20055;-56
2022/11/21 10:11:29;;;;;;;0.35;0.35;;;16.00;67.20;;;;;;4196915;27;20422;-57
2022/11/21 10:14:26;;;;;;;0.43;0.43;;;15.90;67.40;;;;;;4162183;28;20237;-58
2022/11/21 10:17:17;;;;;;;0.10;0.10;;;15.90;67.50;;;;;;4144179;28;20055;-60
2022/11/21 10:20:33;;;;;;;0.00;0.00;;;15.90;67.80;;;;;;4176926;28;20049;-59
2022/11/21 10:24:07;;;;;;;0.00;0.00;;;15.90;67.70;;;;;;4182999;27;20075;-59
2022/11/21 10:26:53;;;;;;;0.08;0.08;;;16.00;67.60;;;;;;4185235;28;20055;-60
2022/11/21 10:29:38;;;;;;;0.55;0.45;;;16.00;67.80;;;;;;4194650;28;20060;-60
2022/11/21 10:32:36;;;;;;;0.00;0.00;;;16.00;67.50;;;;;;4193378;28;20506;-61
2022/11/21 10:35:31;;;;;;;0.32;0.32;;;16.10;67.20;;;;;;4186549;28;20051;-59
2022/11/21 10:38:22;;;;;;;0.00;0.00;;;16.10;66.80;;;;;;4177237;28;20052;-60
2022/11/21 10:41:10;;;;;;;0.00;0.00;;;16.10;66.80;;;;;;4179023;28;20137;-60
2022/11/21 10:47:00;;;;;;;0.17;0.15;;;16.30;66.40;;;;;;4177740;28;20125;-58
2022/11/21 10:49:43;;;;;;;0.00;0.00;;;16.30;66.40;;;;;;4193937;28;20503;-58
2022/11/21 10:52:27;;;;;;;0.00;0.00;;;16.30;66.40;;;;;;4193549;28;20056;-57
2022/11/21 10:55:13;;;;;;;0.32;0.32;;;16.30;66.40;;;;;;4190190;27;20059;-57
2022/11/21 10:57:59;;;;;;;0.00;0.00;;;16.30;66.40;;;;;;4192369;28;20617;-58
2022/11/21 11:01:10;;;;;;;0.00;0.00;;;16.20;66.60;;;;;;4184053;28;20126;-58
2022/11/21 11:04:19;;;;;;;0.40;0.40;;;16.10;66.90;;;;;;4177254;28;20122;-57
2022/11/21 11:07:23;;;;;;;0.47;0.47;;;16.10;67.40;;;;;;4171905;28;20426;-60
2022/11/21 11:10:33;;;;;;;0.47;0.47;;;16.00;68.10;;;;;;4185438;27;20204;-60
2022/11/21 11:13:33;;;;;;;0.32;0.32;;;16.00;68.20;;;;;;4214211;27;20520;-60
2022/11/21 11:16:36;;;;;;;0.10;0.10;;;16.00;68.10;;;;;;4207337;28;20063;-61
2022/11/21 11:19:28;;;;;;;0.03;0.03;;;16.00;68.80;;;;;;4179615;28;20051;-56
2022/11/21 11:22:30;;;;;;;0.10;0.10;;;16.00;68.70;;;;;;4189359;28;20070;-57
2022/11/21 11:25:14;;;;;;;0.30;0.30;;;16.10;68.70;;;;;;4188385;28;20055;-58
2022/11/21 11:28:04;;;;;;;0.50;0.50;;;16.10;68.50;;;;;;4193014;28;20059;-58
2022/11/21 11:30:46;;;;;;;0.82;0.82;;;16.10;68.50;;;;;;4193130;28;20039;-61
2022/11/21 11:33:34;;;;;;;0.55;0.55;;;16.10;68.50;;;;;;4193247;28;20051;-58
2022/11/21 11:36:24;;;;;;;0.10;0.10;;;16.00;68.70;;;;;;4196380;28;20046;-58
2022/11/21 11:39:21;;;;;;;0.20;0.20;;;16.00;68.90;;;;;;4176187;28;20052;-59
2022/11/21 11:49:12;;;;;;;1.55;1.55;;;16.20;68.50;;;;;;4191989;28;20059;-56
2022/11/21 11:52:14;;;;;;;0.10;0.10;;;16.20;68.50;;;;;;4191793;28;20055;-56
2022/11/21 11:55:00;;;;;;;0.25;0.25;;;16.20;68.20;;;;;;4186582;28;20544;-58
2022/11/21 11:57:42;;;;;;;0.43;0.13;;;16.30;67.90;;;;;;4197714;28;20072;-58
2022/11/21 12:00:34;;;;;;;1.58;1.58;;;16.30;67.70;;;;;;4178481;28;20059;-57
2022/11/21 12:03:26;;;;;;;0.00;0.00;;;16.30;67.60;;;;;;4192001;28;20698;-58
2022/11/21 12:06:15;;;;;;;0.00;0.00;;;16.30;67.60;;;;;;4171001;28;20105;-59
2022/11/21 12:09:05;;;;;;;0.68;0.68;;;16.20;67.60;;;;;;4149929;28;20067;-57
2022/11/21 12:12:10;;;;;;;0.10;0.10;;;16.10;67.80;;;;;;4184465;28;20075;-58
2022/11/21 12:18:26;;;;;;;0.90;0.90;;;16.00;68.50;;;;;;4183948;28;20396;-57
2022/11/21 12:21:29;;;;;;;0.00;0.00;;;16.00;68.80;;;;;;4196958;28;20174;-59
2022/11/21 12:24:12;;;;;;;0.00;0.00;;;15.90;69.30;;;;;;4193267;28;20056;-55
2022/11/21 12:27:06;;;;;;;0.20;0.20;;;15.90;69.70;;;;;;4176544;28;20052;-57
2022/11/21 12:30:14;;;;;;;0.40;0.40;;;15.90;69.80;;;;;;4165188;28;20076;-58
2022/11/21 12:33:02;;;;;;;1.17;1.17;;;15.80;69.80;;;;;;4168939;28;20075;-61
2022/11/21 12:36:15;;;;;;;12.52;3.03;;;15.90;69.90;;;;;;4198795;28;20276;-60
2022/11/21 12:39:26;;;;;;;0.10;0.10;;;15.80;69.90;;;;;;4174258;28;20051;-59
2022/11/21 12:45:39;;;;;;;0.10;0.10;;;15.90;69.60;;;;;;4192364;27;20051;-62
2022/11/21 12:55:29;;;;;;;0.10;0.10;;;15.90;71.00;;;;;;4176012;28;20060;-60
2022/11/21 12:58:24;;;;;;;0.85;0.57;;;16.00;70.80;;;;;;4152157;28;20151;-60
2022/11/21 13:01:19;;;;;;;0.00;0.00;;;16.00;71.30;;;;;;4174521;28;20055;-60
2022/11/21 13:04:04;;;;;;;2.53;1.48;;;16.00;70.20;;;;;;4172729;28;20534;-60
2022/11/21 13:06:52;;;;;;;0.00;0.00;;;16.00;69.90;;;;;;4166494;28;20060;-61
2022/11/21 13:09:39;;;;;;;1.08;0.75;;;16.00;69.80;;;;;;4186974;28;20411;-60
2022/11/21 13:12:28;;;;;;;2.92;0.75;;;15.90;69.90;;;;;;4187994;28;20077;-60
2022/11/21 13:15:18;;;;;;;0.00;0.00;;;15.90;70.00;;;;;;4198184;28;20059;-60
2022/11/21 13:18:12;;;;;;;0.00;0.00;;;16.00;69.90;;;;;;4188051;27;20123;-61
2022/11/21 13:20:58;;;;;;;0.00;0.00;;;16.00;70.50;;;;;;4179260;28;20059;-60
2022/11/21 13:23:44;;;;;;;0.88;0.57;;;16.00;69.30;;;;;;4152701;28;20047;-60
2022/11/21 13:27:02;;;;;;;0.20;0.20;;;16.10;69.40;;;;;;4177563;28;20051;-60
2022/11/21 13:30:23;;;;;;;0.20;0.20;;;16.00;69.20;;;;;;4102737;28;20073;-59
2022/11/21 13:33:04;;;;;;;0.00;0.00;;;16.00;69.60;;;;;;4169506;28;20162;-60
2022/11/21 13:36:05;;;;;;;0.40;0.40;;;15.90;69.80;;;;;;4167631;28;20059;-60
2022/11/21 13:39:32;;;;;;;0.63;0.63;;;15.90;69.80;;;;;;4176903;28;20055;-60
2022/11/21 13:48:57;;;;;;;0.45;0.45;;;15.90;69.80;;;;;;4166759;28;20067;-59
2022/11/21 13:51:52;;;;;;;0.20;0.20;;;16.00;69.70;;;;;;4178442;28;20047;-60
2022/11/21 13:55:11;;;;;;;0.00;0.00;;;16.00;69.40;;;;;;4185068;28;20065;-60
2022/11/21 13:59:01;;;;;;;0.25;0.25;;;16.10;69.30;;;;;;4154774;28;20501;-59
2022/11/21 14:02:06;;;;;;;0.73;0.73;;;16.10;69.00;;;;;;4154844;28;20052;-59
2022/11/21 14:05:13;;;;;;;0.00;0.00;;;16.10;68.70;;;;;;4183882;28;20047;-60
2022/11/21 14:08:20;;;;;;;0.30;0.30;;;16.10;69.00;;;;;;4180344;28;20126;-60
2022/11/21 14:11:20;;;;;;;0.20;0.20;;;16.10;69.30;;;;;;4187594;28;20117;-59
2022/11/21 14:14:03;;;;;;;0.80;0.80;;;16.10;69.30;;;;;;4178616;28;20059;-60
2022/11/21 14:16:50;;;;;;;0.00;0.00;;;16.10;69.00;;;;;;4192483;28;20059;-60
2022/11/21 14:19:34;;;;;;;0.00;0.00;;;16.10;69.00;;;;;;4191476;28;20106;-60
2022/11/21 14:22:26;;;;;;;0.65;0.40;;;16.10;69.10;;;;;;4193126;28;20087;-60
2022/11/21 14:25:17;;;;;;;0.20;0.20;;;16.00;69.30;;;;;;4176810;28;20090;-60
2022/11/21 14:28:03;;;;;;;0.00;0.00;;;15.90;69.40;;;;;;4178724;28;20118;-60
2022/11/21 14:30:59;;;;;;;0.00;0.00;;;15.90;69.70;;;;;;4177822;28;20056;-60
2022/11/21 14:33:41;;;;;;;0.52;0.52;;;15.80;69.70;;;;;;4172052;28;20159;-60
2022/11/21 14:36:25;;;;;;;0.03;0.03;;;15.80;69.80;;;;;;4209268;28;20714;-60
2022/11/21 14:39:09;;;;;;;2.65;0.47;;;15.70;70.00;;;;;;4175869;28;20052;-61
2022/11/21 14:42:14;;;;;;;0.00;0.00;;;15.70;70.20;;;;;;4161470;28;20115;-60
2022/11/21 14:48:13;;;;;;;0.30;0.30;;;15.80;69.80;;;;;;4198751;28;20063;-61
2022/11/21 14:50:56;;;;;;;0.30;0.30;;;15.80;69.90;;;;;;4191863;28;20051;-61
2022/11/21 14:53:42;;;;;;;0.08;0.08;;;15.90;69.90;;;;;;4193217;28;20161;-60
2022/11/21 14:56:47;;;;;;;0.00;0.00;;;15.90;69.70;;;;;;4191369;28;20169;-59
2022/11/21 14:59:32;;;;;;;1.10;1.02;;;16.00;69.60;;;;;;4204306;28;20063;-60
2022/11/21 15:02:18;;;;;;;0.28;0.28;;;16.00;69.50;;;;;;4205696;28;20055;-60
2022/11/21 15:05:20;;;;;;;0.30;0.22;;;16.10;69.50;;;;;;4202795;28;20418;-61
2022/11/21 15:11:47;;;;;;;0.00;0.00;;;16.20;68.90;;;;;;4208607;28;20410;-60
2022/11/21 15:14:39;;;;;;;0.10;0.10;;;16.20;68.70;;;;;;4198637;28;20432;-60
2022/11/21 15:17:37;;;;;;;0.00;0.00;;;16.20;68.90;;;;;;4206287;28;20054;-61
2022/11/21 15:20:30;;;;;;;1.10;1.02;;;16.20;68.80;;;;;;4187553;28;20083;-60
2022/11/21 15:23:29;;;;;;;0.00;0.00;;;16.30;68.60;;;;;;4203243;28;20059;-60